Time;durP1;ratioP1;P1;durP2;ratioP2;P2;SDS_P1;SDS_P2;PMS_P1;PMS_P2;Temp;Humidity;BMP_temperature;BMP_pressure;BME280_temperature;BME280_humidity;BME280_pressure;Samples;Min_cycle;Max_cycle;Signal;HPM_P1;HPM_P2
2022/05/13 00:00:59;;;;;;;3.60;3.30;;;21.50;1.00;;;;;;5064077;28;20595;-81
2022/05/13 00:03:27;;;;;;;4.00;3.60;;;21.50;1.00;;;;;;5064386;28;20541;-81
2022/05/13 00:05:57;;;;;;;6.37;4.20;;;21.50;1.00;;;;;;5063180;28;20477;-80
2022/05/13 00:08:25;;;;;;;3.53;3.03;;;21.40;1.00;;;;;;5064079;28;20453;-81
2022/05/13 00:10:54;;;;;;;3.20;2.90;;;21.50;1.00;;;;;;5062864;28;20544;-80
2022/05/13 00:13:22;;;;;;;3.93;3.63;;;21.30;1.00;;;;;;5067791;28;20818;-81
2022/05/13 00:15:52;;;;;;;4.70;2.97;;;21.20;1.00;;;;;;5065200;28;20547;-82
2022/05/13 00:18:21;;;;;;;3.50;3.20;;;21.20;1.00;;;;;;5069444;28;20533;-80
2022/05/13 00:20:49;;;;;;;3.37;3.13;;;21.30;1.00;;;;;;5066455;28;20464;-81
2022/05/13 00:23:19;;;;;;;4.20;3.70;;;21.30;1.00;;;;;;5067978;28;20455;-82
2022/05/13 00:25:47;;;;;;;4.73;3.97;;;21.30;1.00;;;;;;5065438;28;20527;-81
2022/05/13 00:28:15;;;;;;;5.57;3.80;;;21.00;1.00;;;;;;5066980;28;20478;-81
2022/05/13 00:30:48;;;;;;;4.03;3.73;;;21.00;1.00;;;;;;5066139;28;20446;-81
2022/05/13 00:33:17;;;;;;;4.37;3.90;;;21.10;1.00;;;;;;5064459;28;20458;-81
2022/05/13 00:35:46;;;;;;;4.20;3.90;;;21.30;1.00;;;;;;5064480;28;21021;-81
2022/05/13 00:38:14;;;;;;;4.03;3.73;;;21.30;1.00;;;;;;5064316;28;20456;-81
2022/05/13 00:40:46;;;;;;;3.93;3.40;;;21.40;1.00;;;;;;5060430;28;20461;-82
2022/05/13 00:43:15;;;;;;;6.03;3.80;;;21.30;1.00;;;;;;5065846;28;21001;-81
2022/05/13 00:45:43;;;;;;;8.50;4.23;;;21.30;1.00;;;;;;5063870;28;20527;-79
2022/05/13 00:48:12;;;;;;;3.90;3.50;;;21.10;1.00;;;;;;5067373;28;20459;-81
2022/05/13 00:50:41;;;;;;;8.43;5.17;;;21.10;1.00;;;;;;5066965;28;20452;-82
2022/05/13 00:53:13;;;;;;;3.80;3.23;;;21.20;1.00;;;;;;5099040;27;21104;-81
2022/05/13 00:55:45;;;;;;;5.37;3.20;;;21.40;1.00;;;;;;5063350;28;20474;-82
2022/05/13 00:58:17;;;;;;;5.77;3.40;;;21.40;1.00;;;;;;5066713;28;20451;-81
2022/05/13 01:00:46;;;;;;;4.33;4.00;;;21.50;1.00;;;;;;5064177;28;20482;-81
2022/05/13 01:03:15;;;;;;;4.13;3.77;;;21.40;1.00;;;;;;5065063;28;20470;-80
2022/05/13 01:05:47;;;;;;;3.70;3.40;;;21.40;1.00;;;;;;5062428;28;20478;-82
2022/05/13 01:08:15;;;;;;;3.63;3.33;;;21.40;1.00;;;;;;5066358;28;20506;-81
2022/05/13 01:10:46;;;;;;;3.63;3.30;;;21.30;1.00;;;;;;5066947;28;20962;-83
2022/05/13 01:13:22;;;;;;;3.80;3.40;;;21.30;1.00;;;;;;5066238;28;20439;-80
2022/05/13 01:15:52;;;;;;;4.17;3.80;;;21.40;1.00;;;;;;5056581;28;20475;-81
2022/05/13 01:18:26;;;;;;;4.50;3.93;;;21.50;1.00;;;;;;5060062;28;20504;-80
2022/05/13 01:20:55;;;;;;;3.70;3.33;;;21.50;1.00;;;;;;5064741;28;20472;-81
2022/05/13 01:23:27;;;;;;;4.03;3.70;;;21.50;1.00;;;;;;5065757;28;20552;-82
2022/05/13 01:25:58;;;;;;;4.20;3.63;;;21.50;1.00;;;;;;5065570;28;20449;-82
2022/05/13 01:28:29;;;;;;;3.87;3.47;;;21.60;1.00;;;;;;5061304;28;20459;-81
2022/05/13 01:30:59;;;;;;;4.63;4.23;;;21.60;1.00;;;;;;5062993;28;20459;-81
2022/05/13 01:33:28;;;;;;;4.33;3.93;;;21.40;1.00;;;;;;5064607;28;20863;-80
2022/05/13 01:35:59;;;;;;;3.40;3.10;;;21.10;1.00;;;;;;5062944;28;20453;-80
2022/05/13 01:38:32;;;;;;;4.10;3.80;;;20.90;99.90;;;;;;5059566;28;20532;-80
2022/05/13 01:41:01;;;;;;;3.47;3.17;;;20.90;99.90;;;;;;5060359;28;20462;-80
2022/05/13 01:43:30;;;;;;;5.03;4.50;;;20.70;99.90;;;;;;5059194;28;20737;-79
2022/05/13 01:45:58;;;;;;;4.67;4.27;;;20.50;1.00;;;;;;5063219;28;20459;-81
2022/05/13 01:48:28;;;;;;;4.03;3.73;;;20.40;99.90;;;;;;5064715;28;20442;-80
2022/05/13 01:50:56;;;;;;;5.20;3.33;;;20.40;56.60;;;;;;5061070;28;20467;-80
2022/05/13 01:53:25;;;;;;;5.13;4.07;;;20.60;1.00;;;;;;5065344;28;20458;-81
2022/05/13 01:55:55;;;;;;;5.33;4.30;;;20.80;2.90;;;;;;5065409;28;20449;-82
2022/05/13 01:58:25;;;;;;;7.13;3.73;;;21.00;1.00;;;;;;5058927;28;20450;-81
2022/05/13 02:00:55;;;;;;;3.67;3.33;;;21.00;99.90;;;;;;5060509;28;20455;-80
2022/05/13 02:06:12;;;;;;;3.23;3.03;;;21.10;99.90;;;;;;5061169;28;20439;-81
2022/05/13 02:08:41;;;;;;;3.93;3.63;;;21.10;99.90;;;;;;5060328;28;20527;-80
2022/05/13 02:11:11;;;;;;;3.70;3.40;;;21.10;99.90;;;;;;5062905;28;20460;-81
2022/05/13 02:13:40;;;;;;;4.73;2.93;;;21.10;99.90;;;;;;5063585;28;20794;-81
2022/05/13 02:16:10;;;;;;;4.13;3.77;;;21.20;99.90;;;;;;5057278;28;20462;-80
2022/05/13 02:18:38;;;;;;;3.10;2.80;;;21.10;99.90;;;;;;5064762;28;20457;-81
2022/05/13 02:21:08;;;;;;;4.23;2.80;;;21.10;99.90;;;;;;5062419;28;20516;-81
2022/05/13 02:23:37;;;;;;;3.37;3.07;;;21.10;99.90;;;;;;5063570;28;20518;-81
2022/05/13 02:26:08;;;;;;;2.93;2.53;;;21.10;99.90;;;;;;5061507;28;20454;-82
2022/05/13 02:28:39;;;;;;;3.87;2.60;;;21.10;70.40;;;;;;5060500;28;20459;-81
2022/05/13 02:31:08;;;;;;;2.70;2.50;;;21.10;28.90;;;;;;5062852;28;20497;-81
2022/05/13 02:33:37;;;;;;;5.10;2.70;;;21.10;91.60;;;;;;5061346;28;20436;-82
2022/05/13 02:36:06;;;;;;;3.60;3.00;;;21.20;64.90;;;;;;5066498;28;20454;-81
2022/05/13 02:38:36;;;;;;;5.33;2.70;;;21.20;52.90;;;;;;5058944;28;20452;-82
2022/05/13 02:41:13;;;;;;;6.63;2.67;;;21.20;47.20;;;;;;5063615;28;20833;-81
2022/05/13 02:43:45;;;;;;;4.77;2.30;;;21.20;14.20;;;;;;5063308;28;20470;-82
2022/05/13 02:46:16;;;;;;;3.60;2.93;;;21.10;99.90;;;;;;5068228;28;20458;-81
2022/05/13 02:48:44;;;;;;;3.40;3.03;;;21.00;19.00;;;;;;5063946;28;20502;-81
2022/05/13 02:51:13;;;;;;;3.97;3.13;;;20.90;99.90;;;;;;5064649;28;20533;-80
2022/05/13 02:53:42;;;;;;;2.80;2.60;;;21.00;99.10;;;;;;5064282;28;20485;-82
2022/05/13 02:56:10;;;;;;;3.80;2.87;;;21.00;92.00;;;;;;5063155;28;20520;-82
2022/05/13 02:58:41;;;;;;;3.70;2.97;;;21.00;99.90;;;;;;5070320;28;20450;-81
2022/05/13 03:01:12;;;;;;;5.33;2.90;;;21.10;90.40;;;;;;5071805;28;20562;-81
2022/05/13 03:03:41;;;;;;;4.13;2.97;;;21.00;99.90;;;;;;5065701;28;20570;-82
2022/05/13 03:06:10;;;;;;;3.20;2.90;;;21.00;50.20;;;;;;5066478;28;20463;-81
2022/05/13 03:08:39;;;;;;;3.57;3.30;;;21.00;50.10;;;;;;5068827;28;20452;-81
2022/05/13 03:11:08;;;;;;;4.10;3.13;;;21.10;57.10;;;;;;5064154;28;20482;-81
2022/05/13 03:13:37;;;;;;;3.93;3.07;;;21.10;29.00;;;;;;5094835;28;20500;-81
2022/05/13 03:16:07;;;;;;;4.43;3.67;;;21.00;1.00;;;;;;5063442;28;20554;-81
2022/05/13 03:18:39;;;;;;;3.40;2.70;;;21.00;1.00;;;;;;5061263;28;20455;-82
2022/05/13 03:21:08;;;;;;;3.80;3.20;;;21.00;99.90;;;;;;5066569;28;21009;-82
2022/05/13 03:23:36;;;;;;;3.33;3.13;;;21.00;99.90;;;;;;5063742;28;20473;-82
2022/05/13 03:26:05;;;;;;;4.27;3.43;;;21.00;38.30;;;;;;5065980;28;20462;-82
2022/05/13 03:28:33;;;;;;;2.90;2.70;;;21.00;66.90;;;;;;5065479;28;20989;-81
2022/05/13 03:31:02;;;;;;;3.77;3.47;;;21.00;44.80;;;;;;5061445;28;22014;-81
2022/05/13 03:33:30;;;;;;;3.33;3.13;;;21.00;32.80;;;;;;5068357;28;20447;-80
2022/05/13 03:36:00;;;;;;;3.80;3.20;;;21.00;45.00;;;;;;5071095;28;20522;-81
2022/05/13 03:38:28;;;;;;;2.97;2.77;;;21.00;66.20;;;;;;5071042;28;20463;-81
2022/05/13 03:40:57;;;;;;;3.80;3.50;;;20.90;99.90;;;;;;5064863;28;20447;-82
2022/05/13 03:43:25;;;;;;;3.33;2.57;;;20.90;99.90;;;;;;5072623;28;20460;-81
2022/05/13 03:45:53;;;;;;;4.40;3.70;;;20.80;99.90;;;;;;5067637;28;20526;-80
2022/05/13 03:48:22;;;;;;;6.43;3.30;;;20.80;99.90;;;;;;5068728;28;20462;-81
2022/05/13 03:50:50;;;;;;;3.73;3.40;;;20.90;99.90;;;;;;5069873;28;20442;-81
2022/05/13 03:53:20;;;;;;;3.53;3.23;;;20.90;99.90;;;;;;5061424;28;20457;-80
2022/05/13 03:55:48;;;;;;;4.30;3.40;;;20.90;99.90;;;;;;5066070;28;20477;-81
2022/05/13 03:58:16;;;;;;;4.67;3.00;;;20.90;37.60;;;;;;5070998;28;20454;-80
2022/05/13 04:00:46;;;;;;;2.60;2.40;;;21.00;15.00;;;;;;5066251;28;20456;-79
2022/05/13 04:03:15;;;;;;;4.10;3.00;;;21.00;1.00;;;;;;5066220;28;21009;-80
2022/05/13 04:11:16;;;;;;;3.23;2.90;;;20.90;1.00;;;;;;5064874;28;20474;-82
2022/05/13 04:16:30;;;;;;;3.00;2.70;;;20.90;1.00;;;;;;5062990;28;20451;-83
2022/05/13 04:18:59;;;;;;;2.70;2.30;;;20.90;1.00;;;;;;5067831;28;20981;-85
2022/05/13 04:21:29;;;;;;;2.87;2.23;;;20.80;1.00;;;;;;5072501;28;20454;-84
2022/05/13 04:24:01;;;;;;;3.00;2.70;;;20.90;1.00;;;;;;5074118;28;20510;-82
2022/05/13 04:26:30;;;;;;;2.60;2.40;;;20.80;1.00;;;;;;5106257;28;20462;-85
2022/05/13 04:28:59;;;;;;;4.07;2.30;;;20.70;1.00;;;;;;5068757;28;20542;-82
2022/05/13 04:31:31;;;;;;;2.37;2.17;;;20.60;1.00;;;;;;5072057;28;20534;-82
2022/05/13 04:34:00;;;;;;;3.00;2.60;;;20.60;1.00;;;;;;5071751;28;21142;-86
2022/05/13 04:36:29;;;;;;;2.90;2.10;;;20.60;1.00;;;;;;5069197;28;20462;-85
2022/05/13 04:38:59;;;;;;;2.20;2.00;;;20.60;1.00;;;;;;5066711;28;20451;-79
2022/05/13 04:44:16;;;;;;;2.77;2.57;;;20.50;1.00;;;;;;5061857;28;22527;-78
2022/05/13 04:46:44;;;;;;;3.30;3.00;;;20.30;99.90;;;;;;5062687;28;20438;-77
2022/05/13 04:49:12;;;;;;;3.70;3.40;;;20.10;99.90;;;;;;5063227;28;20465;-77
2022/05/13 04:51:40;;;;;;;3.80;3.50;;;20.00;1.00;;;;;;5060225;28;20480;-78
2022/05/13 04:54:10;;;;;;;3.67;3.37;;;20.00;55.90;;;;;;5060975;28;20474;-78
2022/05/13 04:56:39;;;;;;;3.93;3.30;;;20.10;1.00;;;;;;5062100;28;20451;-78
2022/05/13 04:59:08;;;;;;;3.17;2.87;;;19.90;12.90;;;;;;5061768;28;21035;-77
2022/05/13 05:01:36;;;;;;;4.37;2.70;;;19.80;99.90;;;;;;5061951;28;22286;-78
2022/05/13 05:04:05;;;;;;;6.80;3.03;;;20.00;99.90;;;;;;5061134;28;21013;-77
2022/05/13 05:06:33;;;;;;;4.13;3.73;;;20.10;1.00;;;;;;5054875;28;20541;-83
2022/05/13 05:09:01;;;;;;;2.80;2.40;;;20.30;99.90;;;;;;5063929;28;20500;-81
2022/05/13 05:11:33;;;;;;;4.67;2.70;;;20.50;99.90;;;;;;5058391;28;20454;-79
2022/05/13 05:14:01;;;;;;;5.73;3.37;;;20.50;99.90;;;;;;5063292;28;20496;-80
2022/05/13 05:16:29;;;;;;;3.67;3.37;;;20.60;99.90;;;;;;5071939;28;20450;-79
2022/05/13 05:18:59;;;;;;;2.73;2.53;;;20.60;99.90;;;;;;5063925;28;20875;-81
2022/05/13 05:21:29;;;;;;;3.10;2.80;;;20.70;99.90;;;;;;5070818;28;20473;-82
2022/05/13 05:23:58;;;;;;;3.33;2.77;;;20.70;99.90;;;;;;5064397;28;20646;-82
2022/05/13 05:26:26;;;;;;;4.03;3.37;;;20.70;99.90;;;;;;5061648;28;20481;-81
2022/05/13 05:28:56;;;;;;;3.00;2.60;;;20.70;99.90;;;;;;5064837;28;20539;-80
2022/05/13 05:31:24;;;;;;;3.77;3.47;;;20.70;99.90;;;;;;5060227;28;20447;-80
2022/05/13 05:33:52;;;;;;;5.00;2.57;;;20.80;1.00;;;;;;5060246;28;20491;-80
2022/05/13 05:36:21;;;;;;;3.30;2.60;;;20.80;2.10;;;;;;5064503;28;20462;-80
2022/05/13 05:38:49;;;;;;;3.60;3.30;;;20.70;1.00;;;;;;5066108;28;20451;-80
2022/05/13 05:41:18;;;;;;;4.97;3.20;;;20.70;27.90;;;;;;5064954;28;20486;-80
2022/05/13 05:43:46;;;;;;;4.00;3.50;;;20.70;1.00;;;;;;5067732;28;20455;-80
2022/05/13 05:46:16;;;;;;;4.17;3.10;;;20.70;17.20;;;;;;5053643;28;20460;-80
2022/05/13 05:48:44;;;;;;;3.20;2.50;;;20.80;15.60;;;;;;5064418;28;20550;-80
2022/05/13 05:51:12;;;;;;;5.90;2.50;;;20.80;1.00;;;;;;5067388;28;20466;-80
2022/05/13 05:59:08;;;;;;;2.97;2.67;;;20.80;1.00;;;;;;5060367;28;20473;-80
2022/05/13 06:01:38;;;;;;;2.30;2.20;;;20.80;1.00;;;;;;5060658;28;20462;-80
2022/05/13 06:04:06;;;;;;;3.60;2.33;;;20.80;1.00;;;;;;5060347;28;20537;-79
2022/05/13 06:06:35;;;;;;;3.00;2.43;;;20.90;1.00;;;;;;5059842;28;20451;-81
2022/05/13 06:09:03;;;;;;;2.60;2.40;;;20.80;1.00;;;;;;5093535;28;20462;-81
2022/05/13 06:11:31;;;;;;;4.40;3.57;;;20.90;1.00;;;;;;5061249;28;20450;-81
2022/05/13 06:14:00;;;;;;;4.60;3.60;;;20.90;1.00;;;;;;5059193;28;20490;-80
2022/05/13 06:16:30;;;;;;;3.10;2.80;;;20.80;1.00;;;;;;5059886;28;20458;-81
2022/05/13 06:19:00;;;;;;;4.27;2.67;;;20.80;1.00;;;;;;5059396;28;20493;-81
2022/05/13 06:21:30;;;;;;;2.80;2.40;;;20.90;1.00;;;;;;5073686;28;20455;-82
2022/05/13 06:23:58;;;;;;;2.57;2.37;;;20.90;1.00;;;;;;5058974;28;20485;-81
2022/05/13 06:26:27;;;;;;;3.67;2.80;;;20.90;1.00;;;;;;5063241;28;20455;-82
2022/05/13 06:28:56;;;;;;;2.60;2.37;;;20.90;1.00;;;;;;5058392;28;20467;-81
2022/05/13 06:31:24;;;;;;;4.77;2.27;;;20.90;1.00;;;;;;5063126;28;20467;-81
2022/05/13 06:33:53;;;;;;;2.33;2.10;;;20.90;1.00;;;;;;5061493;28;20466;-80
2022/05/13 06:36:23;;;;;;;3.20;2.33;;;20.90;1.00;;;;;;5060370;28;20466;-81
2022/05/13 06:38:51;;;;;;;3.00;2.73;;;20.90;1.00;;;;;;5062778;28;20462;-80
2022/05/13 06:41:19;;;;;;;4.00;2.07;;;20.90;1.00;;;;;;5061366;28;20466;-82
2022/05/13 06:43:47;;;;;;;3.20;2.37;;;20.90;1.00;;;;;;5061568;28;20456;-81
2022/05/13 06:46:16;;;;;;;2.90;2.00;;;20.90;1.00;;;;;;5060909;28;20514;-81
2022/05/13 06:48:47;;;;;;;2.67;1.83;;;20.90;1.00;;;;;;5060763;28;20450;-81
2022/05/13 06:51:17;;;;;;;2.73;2.23;;;20.90;1.00;;;;;;5062751;28;20487;-80
2022/05/13 06:53:46;;;;;;;2.17;1.93;;;20.90;1.00;;;;;;5055273;28;20485;-80
2022/05/13 06:56:15;;;;;;;1.70;1.50;;;20.90;1.00;;;;;;5061356;28;20450;-80
2022/05/13 06:58:43;;;;;;;3.00;2.20;;;20.90;1.00;;;;;;5064163;28;20446;-80
2022/05/13 07:01:11;;;;;;;2.67;1.93;;;20.90;1.00;;;;;;5060690;28;21064;-80
2022/05/13 07:03:39;;;;;;;2.37;1.73;;;20.80;1.00;;;;;;5060110;28;20994;-80
2022/05/13 07:06:08;;;;;;;2.13;1.70;;;20.80;1.00;;;;;;5059890;28;21036;-81
2022/05/13 07:08:36;;;;;;;2.40;1.60;;;20.80;1.00;;;;;;5063150;28;20523;-80
2022/05/13 07:11:06;;;;;;;3.40;1.80;;;20.80;99.90;;;;;;5059110;28;20467;-80
2022/05/13 07:13:39;;;;;;;1.80;1.27;;;20.70;99.90;;;;;;5058853;28;20487;-80
2022/05/13 07:16:07;;;;;;;1.87;1.70;;;20.70;99.90;;;;;;5065393;28;20462;-81
2022/05/13 07:18:38;;;;;;;2.33;1.50;;;20.70;99.90;;;;;;5061880;28;20955;-78
2022/05/13 07:21:07;;;;;;;1.90;1.70;;;20.70;99.90;;;;;;5060009;28;20454;-79
2022/05/13 07:23:35;;;;;;;4.40;1.90;;;20.80;99.90;;;;;;5069304;28;20457;-79
2022/05/13 07:26:05;;;;;;;3.63;1.67;;;20.70;99.90;;;;;;5072233;28;20486;-81
2022/05/13 07:28:34;;;;;;;4.13;1.70;;;20.80;99.90;;;;;;5061615;28;21004;-81
2022/05/13 07:31:02;;;;;;;3.70;1.70;;;20.80;99.90;;;;;;5069045;28;20455;-85
2022/05/13 07:33:30;;;;;;;3.77;1.67;;;20.70;99.90;;;;;;5070253;28;20805;-85
2022/05/13 07:35:59;;;;;;;2.50;1.40;;;20.70;99.90;;;;;;5068584;28;21003;-84
2022/05/13 07:38:29;;;;;;;2.03;1.83;;;20.70;99.90;;;;;;5065016;28;20450;-85
2022/05/13 07:43:44;;;;;;;1.60;1.40;;;20.70;99.90;;;;;;5056340;28;20452;-80
2022/05/13 07:46:13;;;;;;;2.43;1.43;;;20.70;99.90;;;;;;5059796;28;20473;-80
2022/05/13 07:48:42;;;;;;;4.90;2.17;;;20.70;99.90;;;;;;5056292;28;20504;-80
2022/05/13 07:51:11;;;;;;;2.20;1.60;;;20.80;99.90;;;;;;5061932;28;20454;-81
2022/05/13 07:53:39;;;;;;;4.03;2.30;;;20.80;99.90;;;;;;5062982;28;20962;-80
2022/05/13 07:56:08;;;;;;;4.13;1.90;;;20.80;99.90;;;;;;5057588;28;20443;-79
2022/05/13 07:58:37;;;;;;;1.80;1.53;;;20.90;99.90;;;;;;5071130;28;20529;-81
2022/05/13 08:01:06;;;;;;;2.63;1.30;;;20.80;99.90;;;;;;5055914;28;20447;-81
2022/05/13 08:03:35;;;;;;;1.93;1.67;;;20.70;99.90;;;;;;5066809;28;20546;-81
2022/05/13 08:06:04;;;;;;;2.60;1.50;;;20.80;99.90;;;;;;5060911;28;20884;-81
2022/05/13 08:08:36;;;;;;;1.77;1.43;;;20.90;99.90;;;;;;5061871;28;20502;-80
2022/05/13 08:11:06;;;;;;;3.37;2.10;;;20.90;99.90;;;;;;5061660;28;21113;-80
2022/05/13 08:13:35;;;;;;;1.60;1.23;;;20.80;99.90;;;;;;5065150;28;20454;-80
2022/05/13 08:16:04;;;;;;;4.00;1.37;;;21.00;99.90;;;;;;5060739;28;20553;-80
2022/05/13 08:18:34;;;;;;;2.47;1.70;;;20.90;99.90;;;;;;5059246;28;20557;-80
2022/05/13 08:21:03;;;;;;;2.10;1.53;;;20.90;99.90;;;;;;5065388;28;22469;-80
2022/05/13 08:23:31;;;;;;;1.73;1.37;;;21.00;99.90;;;;;;5064130;28;20447;-80
2022/05/13 08:26:00;;;;;;;2.30;1.27;;;20.90;99.90;;;;;;5062634;28;20471;-80
2022/05/13 08:28:29;;;;;;;3.97;1.60;;;20.80;99.90;;;;;;5060764;28;20465;-80
2022/05/13 08:30:57;;;;;;;2.13;1.30;;;20.80;99.90;;;;;;5061188;28;20457;-79
2022/05/13 08:33:26;;;;;;;1.97;1.73;;;20.80;99.90;;;;;;5057828;28;20482;-80
2022/05/13 08:35:58;;;;;;;1.40;1.30;;;20.90;99.90;;;;;;5063685;28;20481;-80
2022/05/13 08:38:29;;;;;;;3.57;1.50;;;20.90;99.90;;;;;;5066935;28;20479;-79
2022/05/13 08:41:06;;;;;;;5.20;1.60;;;21.00;99.90;;;;;;5067196;28;20454;-81
2022/05/13 08:43:36;;;;;;;2.77;1.40;;;21.00;99.90;;;;;;5061688;28;20461;-80
2022/05/13 08:46:13;;;;;;;1.90;1.60;;;21.00;99.90;;;;;;5065297;28;20481;-80
2022/05/13 08:48:48;;;;;;;5.20;1.80;;;21.10;99.90;;;;;;5090640;28;20553;-80
2022/05/13 08:51:22;;;;;;;2.43;1.30;;;21.10;99.90;;;;;;5064877;28;20466;-80
2022/05/13 08:53:56;;;;;;;2.50;1.57;;;21.20;99.90;;;;;;5065782;28;21290;-80
2022/05/13 08:56:28;;;;;;;2.63;1.20;;;21.20;99.90;;;;;;5064801;28;20562;-80
2022/05/13 08:59:02;;;;;;;3.90;1.60;;;21.20;99.90;;;;;;5058672;28;20482;-81
2022/05/13 09:01:36;;;;;;;3.10;1.50;;;21.10;99.90;;;;;;5064153;28;20459;-81
2022/05/13 09:04:08;;;;;;;2.50;1.10;;;21.20;99.90;;;;;;5061966;28;20585;-78
2022/05/13 09:06:43;;;;;;;2.07;1.23;;;21.00;99.90;;;;;;5078391;28;20489;-79
2022/05/13 09:09:13;;;;;;;2.70;1.27;;;21.30;99.90;;;;;;5060852;28;21270;-80
2022/05/13 09:11:49;;;;;;;3.33;1.20;;;21.30;99.90;;;;;;5070904;28;20509;-80
2022/05/13 09:14:30;;;;;;;2.20;1.10;;;21.30;99.90;;;;;;5063092;28;20492;-79
2022/05/13 09:17:13;;;;;;;1.37;1.27;;;21.30;99.90;;;;;;5078452;28;20460;-79
2022/05/13 09:19:52;;;;;;;5.40;1.27;;;21.40;99.90;;;;;;5067913;28;20454;-80
2022/05/13 09:22:22;;;;;;;2.17;1.13;;;21.30;99.90;;;;;;5060810;28;20606;-80
2022/05/13 09:24:50;;;;;;;3.30;1.33;;;21.30;99.90;;;;;;5059535;28;20473;-80
2022/05/13 09:27:46;;;;;;;2.13;1.40;;;21.20;99.90;;;;;;5062195;28;20483;-79
2022/05/13 09:30:19;;;;;;;2.87;1.40;;;21.30;99.90;;;;;;5060806;28;20476;-80
2022/05/13 09:32:48;;;;;;;3.40;1.10;;;21.30;99.90;;;;;;5060180;28;20469;-79
2022/05/13 09:35:26;;;;;;;7.13;1.50;;;21.40;99.90;;;;;;5062366;28;20491;-80
2022/05/13 09:37:56;;;;;;;2.37;1.70;;;21.50;99.90;;;;;;5062775;28;20448;-80
2022/05/13 09:40:27;;;;;;;3.10;1.20;;;21.50;99.90;;;;;;5063576;28;20472;-81
2022/05/13 09:42:57;;;;;;;1.80;1.10;;;21.50;99.90;;;;;;5061407;28;20458;-81
2022/05/13 09:45:28;;;;;;;1.63;1.17;;;21.60;99.90;;;;;;5063027;28;20478;-79
2022/05/13 09:48:11;;;;;;;2.10;1.30;;;21.50;99.90;;;;;;5070655;28;20477;-79
2022/05/13 09:50:42;;;;;;;1.43;1.27;;;21.60;99.90;;;;;;5068579;28;20524;-80
2022/05/13 09:53:34;;;;;;;1.60;1.50;;;21.70;99.90;;;;;;5056715;28;20470;-80
2022/05/13 09:56:05;;;;;;;2.30;1.40;;;21.70;99.90;;;;;;5054596;28;20472;-80
2022/05/13 09:58:37;;;;;;;1.90;1.20;;;21.70;99.90;;;;;;5055809;28;20929;-80
2022/05/13 10:01:09;;;;;;;2.90;1.10;;;21.70;99.90;;;;;;5056930;28;20466;-79
2022/05/13 10:03:39;;;;;;;2.43;1.10;;;21.70;99.90;;;;;;5065898;28;21223;-79
2022/05/13 10:06:21;;;;;;;3.53;1.20;;;21.70;99.90;;;;;;5060600;28;20960;-79
2022/05/13 10:08:54;;;;;;;4.30;1.90;;;21.80;99.90;;;;;;5059767;28;20903;-81
2022/05/13 10:14:27;;;;;;;1.90;1.00;;;21.90;99.90;;;;;;5059402;28;20484;-79
2022/05/13 10:16:59;;;;;;;2.20;1.70;;;21.80;99.90;;;;;;5064787;28;20480;-80
2022/05/13 10:19:35;;;;;;;1.60;1.50;;;21.80;99.90;;;;;;5060384;28;20472;-80
2022/05/13 10:22:15;;;;;;;4.37;1.60;;;21.90;99.90;;;;;;5061284;28;20561;-80
2022/05/13 10:24:50;;;;;;;2.33;1.30;;;21.80;99.90;;;;;;5066410;28;20464;-80
2022/05/13 10:27:25;;;;;;;2.40;1.20;;;21.80;99.90;;;;;;5060111;28;20611;-80
2022/05/13 10:29:59;;;;;;;2.03;1.40;;;21.80;99.90;;;;;;5063578;28;20465;-81
2022/05/13 10:32:39;;;;;;;1.80;1.10;;;21.80;99.90;;;;;;5065981;28;20446;-80
2022/05/13 10:35:11;;;;;;;2.90;1.13;;;21.90;99.90;;;;;;5063546;28;20462;-79
2022/05/13 10:37:52;;;;;;;1.50;1.33;;;21.90;99.90;;;;;;5067862;28;20462;-80
2022/05/13 10:40:23;;;;;;;2.70;1.70;;;22.00;99.90;;;;;;5067608;28;20455;-80
2022/05/13 10:42:58;;;;;;;3.60;1.40;;;22.00;99.90;;;;;;5064088;28;20459;-80
2022/05/13 10:45:30;;;;;;;2.43;1.50;;;22.00;99.90;;;;;;5061992;28;20480;-80
2022/05/13 10:48:14;;;;;;;1.77;1.57;;;21.90;99.90;;;;;;5064959;28;20483;-81
2022/05/13 10:50:50;;;;;;;4.10;2.00;;;22.00;99.90;;;;;;5064915;28;20454;-80
2022/05/13 10:53:25;;;;;;;2.60;1.47;;;21.90;99.90;;;;;;5069592;28;20458;-81
2022/05/13 10:56:00;;;;;;;4.10;2.00;;;21.90;99.90;;;;;;5062604;28;20471;-82
2022/05/13 10:58:40;;;;;;;3.50;2.27;;;21.90;99.90;;;;;;5061656;28;20470;-80
2022/05/13 11:01:25;;;;;;;3.20;1.83;;;21.80;99.90;;;;;;5062184;28;21346;-80
2022/05/13 11:04:01;;;;;;;2.90;1.40;;;21.90;99.90;;;;;;5060342;28;20823;-80
2022/05/13 11:06:46;;;;;;;6.63;2.50;;;21.80;99.90;;;;;;5056101;28;20481;-80
2022/05/13 11:09:25;;;;;;;3.10;1.70;;;21.90;99.90;;;;;;5057125;28;20996;-80
2022/05/13 11:12:01;;;;;;;1.73;1.37;;;21.90;99.90;;;;;;5056702;28;20469;-81
2022/05/13 11:14:41;;;;;;;2.63;1.40;;;21.90;99.90;;;;;;5055320;28;20476;-80
2022/05/13 11:17:23;;;;;;;2.97;1.67;;;21.90;99.90;;;;;;5057369;28;20456;-80
2022/05/13 11:20:04;;;;;;;2.27;1.33;;;21.90;99.90;;;;;;5057899;28;20546;-79
2022/05/13 11:22:38;;;;;;;1.50;1.40;;;21.90;99.90;;;;;;5055898;28;20525;-80
2022/05/13 11:28:26;;;;;;;2.70;1.60;;;21.90;99.90;;;;;;5054642;28;20580;-81
2022/05/13 11:31:02;;;;;;;1.47;1.37;;;21.80;99.90;;;;;;5058245;28;20458;-81
2022/05/13 11:33:40;;;;;;;2.57;1.80;;;21.80;99.90;;;;;;5058874;28;20459;-79
2022/05/13 11:36:22;;;;;;;1.60;1.50;;;21.90;99.90;;;;;;5059387;28;20445;-80
2022/05/13 11:39:21;;;;;;;2.17;1.97;;;22.00;99.90;;;;;;5058129;28;20772;-80
2022/05/13 11:41:59;;;;;;;1.63;1.53;;;21.90;99.90;;;;;;5060072;28;20465;-81
2022/05/13 11:44:51;;;;;;;2.80;1.80;;;22.00;99.90;;;;;;5057650;28;20486;-80
2022/05/13 11:47:26;;;;;;;2.00;1.90;;;22.00;99.90;;;;;;5060687;28;20588;-79
2022/05/13 11:49:57;;;;;;;3.10;2.10;;;22.00;99.90;;;;;;5065515;28;20469;-79
2022/05/13 11:52:47;;;;;;;2.30;2.10;;;22.10;99.90;;;;;;5061160;28;20516;-80
2022/05/13 11:55:19;;;;;;;2.30;1.77;;;21.70;99.90;;;;;;5064459;28;20986;-80
2022/05/13 11:57:49;;;;;;;2.30;2.10;;;21.90;99.90;;;;;;5063145;28;20457;-80
2022/05/13 12:00:37;;;;;;;4.23;1.87;;;21.90;99.90;;;;;;5060848;28;20447;-80
2022/05/13 12:03:16;;;;;;;2.50;2.07;;;22.00;99.90;;;;;;5061763;28;20451;-80
2022/05/13 12:06:10;;;;;;;2.10;1.83;;;22.00;99.90;;;;;;5059785;28;20478;-79
2022/05/13 12:08:45;;;;;;;2.00;1.90;;;22.10;99.90;;;;;;5051235;28;20486;-80
2022/05/13 12:11:42;;;;;;;3.37;1.50;;;22.00;99.90;;;;;;5067624;28;20452;-79
2022/05/13 12:14:20;;;;;;;1.70;1.40;;;22.00;99.90;;;;;;5064883;28;20473;-82
2022/05/13 12:17:01;;;;;;;2.13;1.40;;;21.90;99.90;;;;;;5059415;28;20447;-80
2022/05/13 12:19:47;;;;;;;1.90;1.80;;;21.80;99.90;;;;;;5059018;28;20454;-80
2022/05/13 12:22:34;;;;;;;3.43;1.73;;;21.80;99.90;;;;;;5065735;28;20445;-79
2022/05/13 12:25:07;;;;;;;2.23;1.53;;;22.10;99.90;;;;;;5064260;28;20460;-80
2022/05/13 12:27:38;;;;;;;1.50;1.40;;;22.20;99.90;;;;;;5063485;28;20489;-80
2022/05/13 12:30:28;;;;;;;1.83;1.60;;;22.40;99.90;;;;;;5064049;28;20453;-78
2022/05/13 12:33:19;;;;;;;3.60;1.83;;;22.40;99.90;;;;;;5060957;28;20546;-80
2022/05/13 12:39:06;;;;;;;3.43;1.43;;;22.40;99.90;;;;;;5059943;28;20454;-81
2022/05/13 12:42:00;;;;;;;1.40;1.20;;;22.50;99.90;;;;;;5062010;28;20469;-80
2022/05/13 12:44:40;;;;;;;4.40;1.67;;;22.50;99.90;;;;;;5065273;28;20466;-79
2022/05/13 12:47:20;;;;;;;6.60;2.17;;;22.40;99.90;;;;;;5063723;28;20456;-80
2022/05/13 12:50:21;;;;;;;2.23;1.80;;;22.50;99.90;;;;;;5058437;28;20450;-79
2022/05/13 12:52:49;;;;;;;1.23;1.13;;;22.50;99.90;;;;;;5064094;28;20950;-79
2022/05/13 12:55:21;;;;;;;1.53;1.23;;;22.70;99.90;;;;;;5062329;28;20466;-80
2022/05/13 12:57:53;;;;;;;2.80;1.30;;;22.80;99.90;;;;;;5063677;28;20842;-79
2022/05/13 13:00:25;;;;;;;2.50;1.20;;;22.90;99.90;;;;;;5063304;28;20823;-78
2022/05/13 13:02:59;;;;;;;3.03;1.30;;;23.00;99.90;;;;;;5062040;28;20804;-79
2022/05/13 13:05:36;;;;;;;4.23;1.40;;;23.10;99.90;;;;;;5058403;28;20821;-79
2022/05/13 13:08:11;;;;;;;2.43;1.40;;;23.20;99.90;;;;;;5065329;28;20485;-79
2022/05/13 13:10:48;;;;;;;1.90;1.50;;;23.30;99.90;;;;;;5064996;28;20958;-80
2022/05/13 13:13:23;;;;;;;3.20;1.50;;;23.20;99.90;;;;;;5061563;28;20981;-80
2022/05/13 13:15:57;;;;;;;2.50;1.40;;;23.30;99.90;;;;;;5060866;28;20543;-79
2022/05/13 13:18:30;;;;;;;1.47;1.37;;;23.30;99.90;;;;;;5060555;28;20462;-80
2022/05/13 13:21:02;;;;;;;3.07;1.40;;;23.40;99.90;;;;;;5063088;28;21307;-80
2022/05/13 13:23:34;;;;;;;1.97;1.83;;;23.40;99.90;;;;;;5060961;28;20913;-80
2022/05/13 13:26:04;;;;;;;1.47;1.37;;;23.40;99.90;;;;;;5063331;28;21009;-80
2022/05/13 13:28:35;;;;;;;3.83;1.90;;;23.40;99.90;;;;;;5062332;28;20475;-79
2022/05/13 13:31:07;;;;;;;1.60;1.33;;;23.30;99.90;;;;;;5063845;28;20551;-81
2022/05/13 13:33:37;;;;;;;1.40;1.30;;;23.40;99.90;;;;;;5059781;28;20450;-79
2022/05/13 13:36:11;;;;;;;1.73;1.40;;;23.40;99.90;;;;;;5063194;28;20455;-79
2022/05/13 13:38:41;;;;;;;1.80;1.27;;;23.50;99.90;;;;;;5061988;28;20455;-80
2022/05/13 13:41:09;;;;;;;2.47;1.23;;;23.50;99.90;;;;;;5063349;28;20447;-80
2022/05/13 13:43:37;;;;;;;1.37;1.27;;;23.60;99.90;;;;;;5095616;28;20877;-79
2022/05/13 13:46:10;;;;;;;2.67;1.77;;;23.60;99.90;;;;;;5062015;28;20500;-80